createdAt,value
2023-03-06T00:04:24.346Z,-4.41
2023-03-06T00:09:28.971Z,-4.60
2023-03-06T00:14:32.390Z,-4.71
2023-03-06T00:19:35.789Z,-4.74
2023-03-06T00:24:40.401Z,-4.82
2023-03-06T00:29:43.556Z,-4.92
2023-03-06T00:34:50.089Z,-4.93
2023-03-06T00:39:55.087Z,-5.00
2023-03-06T00:44:58.471Z,-5.07
2023-03-06T00:50:01.867Z,-5.11
2023-03-06T00:55:09.809Z,-5.36
2023-03-06T01:00:14.731Z,-5.16
2023-03-06T01:05:18.441Z,-5.03
2023-03-06T01:10:23.417Z,-4.98
2023-03-06T01:15:26.982Z,-4.95
2023-03-06T01:20:30.995Z,-4.85
2023-03-06T01:25:35.580Z,-4.75
2023-03-06T01:30:38.774Z,-4.69
2023-03-06T01:35:42.172Z,-4.66
2023-03-06T01:40:47.258Z,-4.62
2023-03-06T01:46:23.941Z,-4.61
2023-03-06T01:51:31.719Z,-4.58
2023-03-06T01:56:37.026Z,-4.57
2023-03-06T02:01:41.862Z,-4.61
2023-03-06T02:06:45.693Z,-4.54
2023-03-06T02:11:50.540Z,-4.51
2023-03-06T02:16:54.114Z,-4.78
2023-03-06T02:21:57.710Z,-4.48
2023-03-06T02:27:05.402Z,-4.53
2023-03-06T02:32:08.899Z,-4.47
2023-03-06T02:37:12.987Z,-4.50
2023-03-06T02:42:21.081Z,-4.66
2023-03-06T02:47:24.700Z,-4.43
2023-03-06T02:52:27.985Z,-4.39
2023-03-06T02:57:32.657Z,-4.38
2023-03-06T03:02:36.011Z,-4.37
2023-03-06T03:07:39.522Z,-4.34
2023-03-06T03:12:44.603Z,-4.31
2023-03-06T03:17:47.867Z,-4.28
2023-03-06T03:22:53.319Z,-4.26
2023-03-06T03:27:57.996Z,-4.20
2023-03-06T03:33:01.274Z,-4.15
2023-03-06T03:38:04.889Z,-4.09
2023-03-06T03:43:09.693Z,-4.07
2023-03-06T03:48:13.148Z,-4.05
2023-03-06T03:53:16.492Z,-4.04
2023-03-06T03:58:21.148Z,-4.03
2023-03-06T04:03:24.514Z,-4.03
2023-03-06T04:08:28.590Z,-4.03
2023-03-06T04:13:33.297Z,-4.15
2023-03-06T04:18:36.719Z,-4.06
2023-03-06T04:23:40.069Z,-4.10
2023-03-06T04:28:44.619Z,-4.10
2023-03-06T04:33:47.828Z,-4.09
2023-03-06T04:38:51.081Z,-4.06
2023-03-06T04:43:56.170Z,-4.02
2023-03-06T04:48:59.518Z,-4.06
2023-03-06T04:54:02.787Z,-3.90
2023-03-06T04:59:07.622Z,-3.84
2023-03-06T05:04:10.864Z,-3.77
2023-03-06T05:09:14.366Z,-3.74
2023-03-06T05:14:19.002Z,-3.69
2023-03-06T05:19:22.311Z,-3.58
2023-03-06T05:24:25.720Z,-3.44
2023-03-06T05:29:30.336Z,-3.32
2023-03-06T05:34:33.627Z,-3.27
2023-03-06T05:39:37.007Z,-3.23
2023-03-06T05:44:42.279Z,-3.24
2023-03-06T05:49:45.601Z,-3.24
2023-03-06T05:54:51.908Z,-3.13
2023-03-06T05:59:56.544Z,-2.90
2023-03-06T06:04:59.912Z,-2.82
2023-03-06T06:10:03.987Z,-2.60
2023-03-06T06:15:10.053Z,-2.41
2023-03-06T06:20:14.395Z,-2.10
2023-03-06T06:25:18.197Z,-2.09
2023-03-06T06:30:23.548Z,-1.75
2023-03-06T06:35:26.828Z,-1.65
2023-03-06T06:40:30.573Z,-1.70
2023-03-06T06:45:35.486Z,-1.64
2023-03-06T06:50:40.107Z,-1.68
2023-03-06T06:55:43.447Z,-1.64
2023-03-06T07:00:48.266Z,-1.47
2023-03-06T07:05:57.760Z,-0.89
2023-03-06T07:11:05.768Z,-0.52
2023-03-06T07:16:11.057Z,-0.35
2023-03-06T07:21:14.414Z,-0.10
2023-03-06T07:26:17.668Z,-0.08
2023-03-06T07:31:24.738Z,-0.35
2023-03-06T07:36:28.162Z,-0.48
2023-03-06T07:41:31.439Z,-0.72
2023-03-06T07:46:36.059Z,-0.67
2023-03-06T07:51:39.394Z,-0.57
2023-03-06T07:56:42.658Z,-0.56
2023-03-06T08:01:47.302Z,-0.61
2023-03-06T08:06:50.809Z,-0.53
2023-03-06T08:11:54.111Z,-0.33
2023-03-06T08:16:59.038Z,-0.41
2023-03-06T08:22:02.193Z,-0.70
2023-03-06T08:27:05.481Z,-0.57
2023-03-06T08:32:13.203Z,0.23
2023-03-06T08:37:16.463Z,0.24
2023-03-06T08:42:20.215Z,0.63
2023-03-06T08:47:24.966Z,0.48
2023-03-06T08:52:28.498Z,-0.09
2023-03-06T08:57:32.023Z,0.05
2023-03-06T09:02:36.922Z,0.50
2023-03-06T09:07:40.213Z,0.80
2023-03-06T09:12:50.593Z,0.49
2023-03-06T09:17:56.973Z,1.19
2023-03-06T09:23:00.616Z,1.44
2023-03-06T09:28:11.322Z,0.96
2023-03-06T09:33:16.789Z,0.33
2023-03-06T09:38:20.778Z,0.05
2023-03-06T09:43:35.494Z,0.14
2023-03-06T09:48:50.464Z,0.43
2023-03-06T09:54:06.920Z,0.84
2023-03-06T09:59:17.579Z,0.81
2023-03-06T10:04:33.914Z,0.96
2023-03-06T10:09:43.504Z,0.88
2023-03-06T10:14:51.555Z,0.06
2023-03-06T10:19:56.621Z,0.04
2023-03-06T10:25:06.157Z,0.18
2023-03-06T10:30:33.840Z,0.32
2023-03-06T10:35:48.515Z,0.20
2023-03-06T10:41:08.177Z,-0.26
2023-03-06T10:46:13.458Z,-0.30
2023-03-06T10:51:21.221Z,-0.08
2023-03-06T10:56:32.462Z,-0.30
2023-03-06T11:01:36.202Z,-0.40
2023-03-06T11:06:41.029Z,-0.54
2023-03-06T11:11:44.553Z,-0.58
2023-03-06T11:16:53.285Z,-0.54
2023-03-06T11:22:03.868Z,-0.62
2023-03-06T11:27:22.336Z,-0.69
2023-03-06T11:32:28.979Z,-0.62
2023-03-06T11:37:46.402Z,-0.40
2023-03-06T11:42:54.448Z,-0.25
2023-03-06T11:48:05.121Z,0.25
2023-03-06T11:53:13.927Z,2.07
2023-03-06T11:58:51.624Z,4.80
2023-03-06T12:04:27.250Z,4.85
2023-03-06T12:09:45.317Z,2.65
2023-03-06T12:15:17.822Z,1.16
2023-03-06T12:20:41.369Z,0.23
2023-03-06T12:25:51.845Z,-0.01
2023-03-06T12:31:18.921Z,-0.44
2023-03-06T12:36:40.004Z,-0.90
2023-03-06T12:42:22.692Z,0.06
2023-03-06T12:47:29.305Z,2.77
2023-03-06T12:52:35.076Z,3.90
2023-03-06T12:57:39.649Z,1.84
2023-03-06T13:02:56.162Z,0.64
2023-03-06T13:08:25.386Z,0.82
2023-03-06T13:13:42.719Z,2.47
2023-03-06T13:18:53.264Z,3.79
2023-03-06T13:24:05.850Z,2.84
2023-03-06T13:29:41.878Z,1.74
2023-03-06T13:34:48.679Z,0.81
2023-03-06T13:40:26.935Z,0.20
2023-03-06T13:45:35.450Z,-0.47
2023-03-06T13:50:42.865Z,-0.92
2023-03-06T13:55:59.892Z,-1.11
2023-03-06T14:01:20.326Z,-1.22
2023-03-06T14:06:51.500Z,-1.24
2023-03-06T14:11:59.334Z,-1.24
2023-03-06T14:17:05.368Z,-1.45
2023-03-06T14:22:18.386Z,-1.88
2023-03-06T14:27:22.461Z,-2.39
2023-03-06T14:32:25.978Z,-2.65
2023-03-06T14:37:32.230Z,-2.79
2023-03-06T14:42:35.530Z,-2.87
2023-03-06T14:47:39.272Z,-2.98
2023-03-06T14:52:44.534Z,-3.14
2023-03-06T14:57:50.262Z,-3.22
2023-03-06T15:02:56.419Z,-3.26
2023-03-06T15:08:04.672Z,-3.35
2023-03-06T15:13:12.625Z,-3.55
2023-03-06T15:18:34.035Z,-3.85
2023-03-06T15:23:40.580Z,-4.14
2023-03-06T15:28:44.069Z,-4.38
2023-03-06T15:34:09.300Z,-4.63
2023-03-06T15:39:32.046Z,-4.82
2023-03-06T15:44:35.838Z,-4.90
2023-03-06T15:49:39.340Z,-5.13
2023-03-06T15:54:44.346Z,-5.17
2023-03-06T15:59:48.157Z,-5.25
2023-03-06T16:04:52.273Z,-5.30
2023-03-06T16:09:57.267Z,-5.27
2023-03-06T16:15:03.004Z,-5.22
2023-03-06T16:20:09.166Z,-5.17
2023-03-06T16:25:15.267Z,-5.11
2023-03-06T16:30:21.497Z,-5.07
2023-03-06T16:35:25.859Z,-5.04
2023-03-06T16:40:37.634Z,-5.07
2023-03-06T16:45:42.757Z,-5.05
2023-03-06T16:50:46.325Z,-5.02
2023-03-06T16:55:51.113Z,-4.89
2023-03-06T17:00:54.700Z,-4.94
2023-03-06T17:05:58.015Z,-5.06
2023-03-06T17:11:06.410Z,-5.13
2023-03-06T17:16:12.775Z,-5.22
2023-03-06T17:21:16.711Z,-5.26
2023-03-06T17:26:21.554Z,-5.29
2023-03-06T17:31:27.153Z,-5.31
2023-03-06T17:36:31.251Z,-5.36
2023-03-06T17:41:35.985Z,-5.39
2023-03-06T17:46:39.499Z,-5.48
2023-03-06T17:51:42.697Z,-5.50
2023-03-06T17:56:47.620Z,-5.59
2023-03-06T18:01:51.050Z,-5.71
2023-03-06T18:06:54.517Z,-5.85
2023-03-06T18:11:59.156Z,-5.99
2023-03-06T18:17:02.465Z,-6.07
2023-03-06T18:22:05.651Z,-6.07
2023-03-06T18:27:10.516Z,-6.09
2023-03-06T18:32:13.746Z,-6.13
2023-03-06T18:37:17.282Z,-6.19
2023-03-06T18:42:22.066Z,-6.26
2023-03-06T18:47:25.388Z,-6.36
2023-03-06T18:52:28.577Z,-6.41
2023-03-06T18:57:33.638Z,-6.47
2023-03-06T19:02:36.961Z,-6.55
2023-03-06T19:07:40.830Z,-6.55
2023-03-06T19:12:45.622Z,-6.62
2023-03-06T19:17:51.516Z,-6.66
2023-03-06T19:22:55.242Z,-6.75
2023-03-06T19:27:59.938Z,-6.72
2023-03-06T19:33:03.287Z,-6.73
2023-03-06T19:38:06.465Z,-6.76
2023-03-06T19:43:11.170Z,-6.81
2023-03-06T19:48:14.860Z,-6.91
2023-03-06T19:53:18.096Z,-6.89
2023-03-06T19:58:22.754Z,-6.76
2023-03-06T20:03:25.995Z,-6.71
2023-03-06T20:08:29.283Z,-6.69
2023-03-06T20:13:34.114Z,-6.64
2023-03-06T20:18:37.523Z,-6.64
2023-03-06T20:23:40.997Z,-6.61
2023-03-06T20:28:45.653Z,-6.66
2023-03-06T20:33:51.240Z,-6.44
2023-03-06T20:38:54.597Z,-6.38
2023-03-06T20:44:01.187Z,-6.35
2023-03-06T20:49:05.448Z,-6.22
2023-03-06T20:54:11.172Z,-6.18
2023-03-06T20:59:16.353Z,-6.12
2023-03-06T21:04:19.486Z,-6.12
2023-03-06T21:09:22.936Z,-6.12
2023-03-06T21:14:27.885Z,-6.10
2023-03-06T21:19:31.265Z,-6.12
2023-03-06T21:24:34.530Z,-6.12
2023-03-06T21:29:39.213Z,-6.13
2023-03-06T21:34:42.600Z,-6.14
2023-03-06T21:39:45.902Z,-6.11
2023-03-06T21:44:50.889Z,-6.11
2023-03-06T21:49:54.186Z,-6.12
2023-03-06T21:54:57.503Z,-6.10
2023-03-06T22:00:02.365Z,-6.08
2023-03-06T22:05:07.194Z,-6.06
2023-03-06T22:10:14.391Z,-6.09
2023-03-06T22:15:21.914Z,-6.04
2023-03-06T22:20:25.256Z,-6.06
2023-03-06T22:25:28.405Z,-6.04
2023-03-06T22:30:33.100Z,-6.03
2023-03-06T22:35:36.401Z,-6.05
2023-03-06T22:40:39.803Z,-6.05
2023-03-06T22:45:44.726Z,-6.06
2023-03-06T22:50:48.464Z,-5.98
2023-03-06T22:55:51.941Z,-5.91
2023-03-06T23:00:57.901Z,-5.96
2023-03-06T23:06:01.199Z,-5.99
2023-03-06T23:11:08.230Z,-6.00
2023-03-06T23:16:13.326Z,-6.01
2023-03-06T23:21:18.426Z,-6.11
2023-03-06T23:26:23.925Z,-5.98
2023-03-06T23:31:30.244Z,-5.99
2023-03-06T23:36:33.577Z,-5.98
2023-03-06T23:41:36.872Z,-6.00
2023-03-06T23:46:41.588Z,-6.05
2023-03-06T23:51:45.063Z,-6.05
2023-03-06T23:56:48.660Z,-6.07
